createdAt,value
2022-08-26T00:04:38.184Z,62.40
2022-08-26T00:09:41.553Z,56.74
2022-08-26T00:14:50.402Z,57.14
2022-08-26T00:19:53.808Z,59.57
2022-08-26T00:24:57.016Z,68.06
2022-08-26T00:30:09.971Z,64.80
2022-08-26T00:35:14.615Z,60.75
2022-08-26T00:40:27.223Z,56.24
2022-08-26T00:45:45.441Z,56.99
2022-08-26T00:50:56.749Z,66.15
2022-08-26T00:56:11.785Z,62.55
2022-08-26T01:01:18.737Z,56.11
2022-08-26T01:06:27.524Z,56.80
2022-08-26T01:11:32.705Z,59.46
2022-08-26T01:16:37.373Z,68.74
2022-08-26T01:22:22.800Z,64.90
2022-08-26T01:27:33.627Z,61.26
2022-08-26T01:32:38.855Z,55.74
2022-08-26T01:37:42.382Z,56.25
2022-08-26T01:42:47.000Z,58.50
2022-08-26T01:47:56.770Z,68.04
2022-08-26T01:53:07.779Z,65.46
2022-08-26T01:58:28.679Z,61.14
2022-08-26T02:03:34.059Z,55.32
2022-08-26T02:08:48.130Z,56.20
2022-08-26T02:14:03.099Z,59.32
2022-08-26T02:19:17.233Z,68.82
2022-08-26T02:24:29.419Z,64.42
2022-08-26T02:29:41.690Z,60.54
2022-08-26T02:34:47.066Z,55.05
2022-08-26T02:39:50.337Z,56.36
2022-08-26T02:44:56.334Z,59.12
2022-08-26T02:50:00.616Z,68.43
2022-08-26T02:55:07.260Z,65.24
2022-08-26T03:00:14.937Z,61.69
2022-08-26T03:05:19.942Z,56.12
2022-08-26T03:10:25.977Z,54.94
2022-08-26T03:15:29.523Z,58.74
2022-08-26T03:20:34.307Z,68.72
2022-08-26T03:25:38.080Z,64.92
2022-08-26T03:30:44.874Z,61.17
2022-08-26T03:35:50.575Z,55.95
2022-08-26T03:40:54.214Z,56.91
2022-08-26T03:45:57.587Z,59.35
2022-08-26T03:51:03.138Z,69.20
2022-08-26T03:56:06.970Z,66.61
2022-08-26T04:01:12.500Z,62.65
2022-08-26T04:06:17.115Z,56.79
2022-08-26T04:11:24.897Z,57.24
2022-08-26T04:16:29.649Z,59.35
2022-08-26T04:21:33.652Z,68.38
2022-08-26T04:26:39.583Z,65.54
2022-08-26T04:31:48.304Z,62.16
2022-08-26T04:36:52.184Z,56.34
2022-08-26T04:41:55.995Z,56.48
2022-08-26T04:47:02.949Z,59.07
2022-08-26T04:52:06.519Z,69.06
2022-08-26T04:57:11.085Z,65.44
2022-08-26T05:02:14.472Z,61.68
2022-08-26T05:07:17.742Z,56.33
2022-08-26T05:12:21.200Z,56.24
2022-08-26T05:17:24.617Z,58.73
2022-08-26T05:22:27.822Z,68.24
2022-08-26T05:27:30.924Z,65.51
2022-08-26T05:32:36.181Z,61.86
2022-08-26T05:37:39.523Z,56.21
2022-08-26T05:42:43.007Z,56.51
2022-08-26T05:47:46.996Z,65.02
2022-08-26T05:52:51.404Z,63.25
2022-08-26T05:57:54.579Z,56.28
2022-08-26T06:02:58.831Z,56.83
2022-08-26T06:08:14.618Z,61.57
2022-08-26T06:13:31.871Z,63.86
2022-08-26T06:18:42.515Z,57.19
2022-08-26T06:24:07.465Z,59.10
2022-08-26T06:29:10.765Z,63.52
2022-08-26T06:34:18.991Z,57.67
2022-08-26T06:39:22.199Z,59.92
2022-08-26T06:44:26.227Z,63.29
2022-08-26T06:49:29.447Z,59.39
2022-08-26T06:54:33.190Z,58.83
2022-08-26T06:59:36.571Z,61.69
2022-08-26T07:04:40.218Z,65.51
2022-08-26T07:09:43.706Z,56.05
2022-08-26T07:14:47.455Z,57.91
2022-08-26T07:19:51.965Z,60.08
2022-08-26T07:24:56.109Z,60.62
2022-08-26T07:30:00.534Z,61.43
2022-08-26T07:35:06.821Z,61.17
2022-08-26T07:40:10.832Z,55.60
2022-08-26T07:45:15.184Z,57.43
2022-08-26T07:50:18.692Z,58.64
2022-08-26T07:55:23.133Z,59.91
2022-08-26T08:00:26.746Z,59.70
2022-08-26T08:05:33.914Z,60.76
2022-08-26T08:10:38.398Z,60.98
2022-08-26T08:15:42.631Z,61.29
2022-08-26T08:20:59.300Z,61.42
2022-08-26T08:26:11.212Z,61.04
2022-08-26T08:31:55.751Z,60.86
2022-08-26T08:36:53.279Z,60.13
2022-08-26T08:42:25.087Z,58.73
2022-08-26T08:48:00.965Z,57.38
2022-08-26T08:53:13.202Z,56.25
2022-08-26T08:58:33.409Z,55.51
2022-08-26T09:04:28.544Z,54.56
2022-08-26T09:09:49.368Z,54.71
2022-08-26T09:15:11.731Z,53.81
2022-08-26T09:20:43.472Z,52.90
2022-08-26T09:25:57.597Z,51.45
2022-08-26T09:31:34.292Z,50.62
2022-08-26T09:36:45.330Z,49.30
2022-08-26T09:42:01.638Z,48.55
2022-08-26T09:47:08.846Z,47.94
2022-08-26T09:52:26.928Z,47.27
2022-08-26T09:57:35.336Z,47.18
2022-08-26T10:02:47.746Z,46.78
2022-08-26T10:07:53.700Z,46.95
2022-08-26T10:13:16.595Z,46.88
2022-08-26T10:18:33.672Z,47.04
2022-08-26T10:23:50.359Z,45.50
2022-08-26T10:29:15.889Z,45.47
2022-08-26T10:34:21.160Z,45.36
2022-08-26T10:39:57.312Z,45.61
2022-08-26T10:45:15.107Z,46.56
2022-08-26T10:50:31.702Z,46.82
2022-08-26T10:55:45.557Z,47.08
2022-08-26T11:01:18.988Z,47.94
2022-08-26T11:06:31.575Z,47.48
2022-08-26T11:11:41.007Z,47.58
2022-08-26T11:16:52.236Z,47.41
2022-08-26T11:22:24.284Z,46.50
2022-08-26T11:27:27.655Z,47.01
2022-08-26T11:32:34.867Z,48.17
2022-08-26T11:37:48.602Z,46.49
2022-08-26T11:42:59.838Z,43.99
2022-08-26T11:48:23.919Z,43.89
2022-08-26T11:53:30.383Z,44.07
2022-08-26T11:58:35.684Z,42.84
2022-08-26T12:03:51.425Z,41.62
2022-08-26T12:09:01.690Z,40.36
2022-08-26T12:14:15.579Z,40.24
2022-08-26T12:19:32.900Z,39.12
2022-08-26T12:24:44.022Z,38.97
2022-08-26T12:30:13.840Z,38.11
2022-08-26T12:35:21.244Z,37.98
2022-08-26T12:40:37.597Z,37.68
2022-08-26T12:45:55.180Z,37.66
2022-08-26T12:51:00.642Z,37.12
2022-08-26T12:56:41.485Z,37.20
2022-08-26T13:01:45.836Z,35.29
2022-08-26T13:06:49.225Z,35.33
2022-08-26T13:11:55.402Z,36.12
2022-08-26T13:16:58.710Z,37.11
2022-08-26T13:22:02.227Z,35.89
2022-08-26T13:27:08.823Z,35.95
2022-08-26T13:32:12.638Z,35.85
2022-08-26T13:37:16.875Z,36.76
2022-08-26T13:42:21.643Z,37.10
2022-08-26T13:47:27.639Z,35.83
2022-08-26T13:52:31.538Z,36.71
2022-08-26T13:57:35.029Z,37.22
2022-08-26T14:02:38.246Z,38.64
2022-08-26T14:07:41.600Z,38.92
2022-08-26T14:12:46.087Z,39.91
2022-08-26T14:17:50.669Z,40.74
2022-08-26T14:23:13.292Z,42.62
2022-08-26T14:28:18.704Z,43.15
2022-08-26T14:33:29.102Z,42.50
2022-08-26T14:38:34.188Z,42.73
2022-08-26T14:43:43.237Z,44.04
2022-08-26T14:48:46.586Z,44.19
2022-08-26T14:54:10.376Z,43.18
2022-08-26T14:59:25.557Z,42.41
2022-08-26T15:04:30.478Z,41.73
2022-08-26T15:09:37.917Z,40.64
2022-08-26T15:14:41.196Z,40.12
2022-08-26T15:19:44.610Z,38.80
2022-08-26T15:24:48.060Z,38.97
2022-08-26T15:29:57.064Z,38.49
2022-08-26T15:35:00.574Z,38.37
2022-08-26T15:40:07.130Z,38.75
2022-08-26T15:45:11.506Z,39.08
2022-08-26T15:50:29.913Z,39.10
2022-08-26T15:55:33.173Z,39.62
2022-08-26T16:00:38.117Z,39.52
2022-08-26T16:05:43.873Z,39.62
2022-08-26T16:10:50.517Z,39.89
2022-08-26T16:15:54.051Z,40.79
2022-08-26T16:21:12.460Z,41.79
2022-08-26T16:26:22.259Z,41.45
2022-08-26T16:31:25.610Z,42.07
2022-08-26T16:36:29.258Z,44.59
2022-08-26T16:41:33.498Z,44.80
2022-08-26T16:46:36.919Z,43.86
2022-08-26T16:51:40.722Z,46.31
2022-08-26T16:56:44.343Z,48.02
2022-08-26T17:01:47.691Z,47.81
2022-08-26T17:06:51.171Z,48.08
2022-08-26T17:11:54.995Z,49.79
2022-08-26T17:16:58.205Z,51.03
2022-08-26T17:22:01.512Z,51.33
2022-08-26T17:27:09.120Z,51.02
2022-08-26T17:32:12.468Z,51.89
2022-08-26T17:37:17.068Z,53.32
2022-08-26T17:42:20.396Z,54.46
2022-08-26T17:47:24.004Z,55.02
2022-08-26T17:52:29.046Z,55.21
2022-08-26T17:57:32.790Z,55.56
2022-08-26T18:02:44.271Z,55.93
2022-08-26T18:07:48.718Z,56.16
2022-08-26T18:12:52.161Z,55.88
2022-08-26T18:17:55.331Z,56.28
2022-08-26T18:22:58.544Z,56.32
2022-08-26T18:28:01.750Z,56.90
2022-08-26T18:33:05.092Z,57.81
2022-08-26T18:38:11.014Z,58.03
2022-08-26T18:43:14.780Z,58.17
2022-08-26T18:48:17.962Z,58.40
2022-08-26T18:53:21.486Z,58.12
2022-08-26T18:58:25.609Z,58.97
2022-08-26T19:03:29.026Z,60.04
2022-08-26T19:08:32.475Z,60.54
2022-08-26T19:13:36.567Z,60.35
2022-08-26T19:18:41.447Z,60.91
2022-08-26T19:23:45.033Z,69.96
2022-08-26T19:28:49.696Z,64.32
2022-08-26T19:33:53.293Z,54.32
2022-08-26T19:38:57.124Z,52.77
2022-08-26T19:44:02.804Z,53.96
2022-08-26T19:49:07.942Z,55.51
2022-08-26T19:54:11.251Z,57.01
2022-08-26T19:59:15.486Z,58.31
2022-08-26T20:04:18.724Z,59.76
2022-08-26T20:09:22.000Z,68.88
2022-08-26T20:14:27.678Z,65.11
2022-08-26T20:19:49.841Z,55.10
2022-08-26T20:24:53.346Z,53.17
2022-08-26T20:29:58.005Z,54.53
2022-08-26T20:35:01.926Z,56.02
2022-08-26T20:40:09.069Z,57.48
2022-08-26T20:45:12.475Z,58.76
2022-08-26T20:50:15.945Z,58.36
2022-08-26T20:55:20.110Z,68.76
2022-08-26T21:00:26.974Z,64.88
2022-08-26T21:05:32.267Z,55.42
2022-08-26T21:10:36.352Z,53.75
2022-08-26T21:15:40.172Z,55.30
2022-08-26T21:20:43.587Z,56.98
2022-08-26T21:25:47.708Z,58.50
2022-08-26T21:30:51.025Z,59.93
2022-08-26T21:35:55.565Z,69.27
2022-08-26T21:41:03.218Z,65.88
2022-08-26T21:46:17.650Z,56.13
2022-08-26T21:51:24.795Z,53.99
2022-08-26T21:56:31.787Z,55.49
2022-08-26T22:01:36.372Z,57.17
2022-08-26T22:06:51.072Z,58.77
2022-08-26T22:11:57.047Z,60.02
2022-08-26T22:17:00.894Z,69.54
2022-08-26T22:22:04.283Z,65.57
2022-08-26T22:27:07.850Z,56.61
2022-08-26T22:32:11.478Z,54.61
2022-08-26T22:37:14.964Z,55.97
2022-08-26T22:42:18.236Z,57.92
2022-08-26T22:47:21.753Z,59.39
2022-08-26T22:52:25.376Z,68.93
2022-08-26T22:57:28.686Z,64.56
2022-08-26T23:02:31.933Z,55.99
2022-08-26T23:07:36.739Z,54.34
2022-08-26T23:12:40.290Z,55.86
2022-08-26T23:17:43.568Z,57.68
2022-08-26T23:22:46.896Z,59.64
2022-08-26T23:27:50.595Z,68.97
2022-08-26T23:32:54.836Z,65.31
2022-08-26T23:37:58.939Z,57.00
2022-08-26T23:43:06.760Z,54.50
2022-08-26T23:48:10.179Z,55.93
2022-08-26T23:53:20.375Z,57.85
2022-08-26T23:58:24.194Z,59.65
